createdAt,value
2019-06-26T00:00:42.934Z,27.76
2019-06-26T00:03:13.524Z,28.65
2019-06-26T00:05:44.390Z,28.68
2019-06-26T00:08:14.990Z,28.43
2019-06-26T00:10:45.649Z,27.92
2019-06-26T00:13:25.581Z,26.93
2019-06-26T00:15:48.939Z,27.27
2019-06-26T00:18:19.509Z,27.67
2019-06-26T00:20:50.091Z,27.88
2019-06-26T00:23:20.666Z,28.19
2019-06-26T00:25:51.256Z,27.55
2019-06-26T00:28:21.848Z,28.02
2019-06-26T00:30:52.457Z,28.04
2019-06-26T00:33:24.301Z,27.20
2019-06-26T00:35:54.897Z,27.18
2019-06-26T00:38:25.479Z,27.17
2019-06-26T00:40:56.129Z,27.07
2019-06-26T00:43:41.600Z,27.10
2019-06-26T00:45:59.180Z,26.96
2019-06-26T00:48:29.758Z,26.58
2019-06-26T00:51:00.354Z,26.57
2019-06-26T00:53:30.932Z,27.05
2019-06-26T00:56:01.526Z,26.43
2019-06-26T00:58:32.269Z,26.60
2019-06-26T01:01:02.873Z,26.50
2019-06-26T01:03:33.444Z,27.28
2019-06-26T01:06:04.354Z,26.68
2019-06-26T01:08:34.950Z,26.70
2019-06-26T01:11:05.817Z,26.79
2019-06-26T01:13:36.402Z,26.72
2019-06-26T01:16:06.973Z,27.27
2019-06-26T01:18:37.863Z,27.37
2019-06-26T01:21:08.548Z,26.99
2019-06-26T01:23:39.129Z,27.06
2019-06-26T01:26:09.710Z,27.26
2019-06-26T01:28:40.296Z,26.62
2019-06-26T01:31:10.867Z,26.54
2019-06-26T01:33:41.455Z,26.51
2019-06-26T01:36:12.033Z,26.97
2019-06-26T01:38:42.625Z,26.66
2019-06-26T01:41:13.237Z,26.48
2019-06-26T01:43:43.830Z,26.51
2019-06-26T01:46:14.397Z,26.62
2019-06-26T01:48:45.003Z,26.18
2019-06-26T01:51:15.608Z,26.48
2019-06-26T01:53:46.218Z,27.03
2019-06-26T01:56:16.810Z,27.34
2019-06-26T01:58:47.467Z,26.87
2019-06-26T02:01:18.072Z,26.54
2019-06-26T02:03:48.661Z,26.23
2019-06-26T02:06:19.241Z,26.46
2019-06-26T02:08:49.822Z,26.09
2019-06-26T02:11:20.461Z,26.27
2019-06-26T02:13:51.035Z,25.85
2019-06-26T02:16:21.609Z,25.74
2019-06-26T02:18:56.026Z,25.81
2019-06-26T02:21:26.942Z,25.92
2019-06-26T02:23:57.736Z,25.74
2019-06-26T02:26:28.309Z,25.71
2019-06-26T02:28:58.912Z,25.86
2019-06-26T02:31:29.755Z,26.05
2019-06-26T02:34:00.685Z,26.39
2019-06-26T02:36:31.287Z,26.49
2019-06-26T02:39:02.163Z,26.72
2019-06-26T02:41:32.803Z,26.67
2019-06-26T02:44:03.402Z,26.53
2019-06-26T02:46:34.029Z,25.86
2019-06-26T02:49:04.705Z,25.47
2019-06-26T02:51:35.287Z,25.28
2019-06-26T02:54:06.258Z,25.50
2019-06-26T02:56:37.376Z,25.63
2019-06-26T02:59:08.413Z,25.54
2019-06-26T03:01:39.055Z,25.79
2019-06-26T03:04:09.786Z,26.08
2019-06-26T03:06:40.433Z,25.70
2019-06-26T03:09:11.098Z,25.59
2019-06-26T03:11:41.777Z,25.89
2019-06-26T03:14:12.510Z,26.40
2019-06-26T03:16:43.177Z,26.53
2019-06-26T03:19:13.848Z,25.96
2019-06-26T03:21:44.485Z,25.79
2019-06-26T03:24:15.137Z,25.62
2019-06-26T03:26:45.816Z,25.37
2019-06-26T03:29:16.452Z,25.34
2019-06-26T03:31:47.197Z,25.05
2019-06-26T03:34:17.778Z,25.35
2019-06-26T03:36:48.463Z,25.39
2019-06-26T03:39:19.093Z,25.80
2019-06-26T03:41:49.721Z,26.02
2019-06-26T03:44:20.407Z,25.68
2019-06-26T03:46:51.139Z,25.30
2019-06-26T03:49:21.822Z,25.50
2019-06-26T03:51:52.458Z,25.53
2019-06-26T03:54:23.111Z,25.87
2019-06-26T03:56:54.102Z,26.18
2019-06-26T03:59:24.780Z,26.08
2019-06-26T04:01:55.460Z,26.11
2019-06-26T04:04:26.429Z,25.81
2019-06-26T04:06:57.059Z,25.99
2019-06-26T04:09:27.692Z,26.00
2019-06-26T04:11:58.643Z,26.17
2019-06-26T04:14:29.245Z,26.11
2019-06-26T04:17:00.327Z,26.15
2019-06-26T04:19:31.027Z,25.42
2019-06-26T04:22:01.952Z,25.61
2019-06-26T04:24:32.633Z,25.84
2019-06-26T04:27:03.308Z,25.82
2019-06-26T04:29:33.925Z,25.48
2019-06-26T04:32:04.809Z,25.98
2019-06-26T04:34:35.470Z,25.93
2019-06-26T04:37:06.139Z,26.13
2019-06-26T04:39:36.770Z,25.75
2019-06-26T04:42:07.804Z,25.29
2019-06-26T04:44:38.511Z,25.57
2019-06-26T04:47:09.177Z,25.59
2019-06-26T04:49:39.845Z,25.65
2019-06-26T04:52:10.534Z,25.63
2019-06-26T04:54:41.184Z,25.19
2019-06-26T04:57:11.924Z,25.45
2019-06-26T04:59:42.695Z,25.90
2019-06-26T05:02:13.369Z,25.76
2019-06-26T05:04:44.044Z,25.61
2019-06-26T05:07:14.640Z,25.97
2019-06-26T05:09:45.209Z,26.06
2019-06-26T05:12:15.845Z,25.72
2019-06-26T05:14:46.419Z,25.88
2019-06-26T05:17:17.282Z,25.94
2019-06-26T05:19:47.864Z,26.08
2019-06-26T05:22:18.448Z,26.21
2019-06-26T05:24:49.371Z,25.76
2019-06-26T05:27:19.944Z,25.78
2019-06-26T05:29:50.499Z,25.83
2019-06-26T05:32:21.121Z,26.12
2019-06-26T05:34:51.705Z,25.96
2019-06-26T05:37:22.304Z,25.99
2019-06-26T05:39:54.821Z,26.21
2019-06-26T05:42:25.251Z,25.95
2019-06-26T05:44:56.118Z,25.89
2019-06-26T05:47:26.709Z,25.85
2019-06-26T05:49:57.307Z,25.55
2019-06-26T05:52:27.890Z,25.86
2019-06-26T05:54:58.492Z,26.01
2019-06-26T05:57:29.089Z,25.83
2019-06-26T05:59:59.647Z,25.61
2019-06-26T06:02:30.236Z,26.06
2019-06-26T06:05:00.871Z,26.16
2019-06-26T06:07:31.491Z,25.83
2019-06-26T06:10:02.233Z,26.31
2019-06-26T06:12:32.890Z,25.69
2019-06-26T06:15:03.503Z,26.10
2019-06-26T06:17:34.081Z,25.64
2019-06-26T06:20:05.171Z,25.96
2019-06-26T06:22:35.759Z,26.27
2019-06-26T06:25:06.910Z,26.33
2019-06-26T06:27:37.518Z,26.37
2019-06-26T06:30:08.298Z,26.29
2019-06-26T06:32:38.885Z,26.39
2019-06-26T06:35:11.603Z,26.45
2019-06-26T06:37:42.185Z,26.44
2019-06-26T06:40:13.253Z,26.33
2019-06-26T06:42:43.838Z,26.16
2019-06-26T06:45:14.569Z,25.94
2019-06-26T06:47:45.248Z,26.13
2019-06-26T06:50:16.102Z,26.23
2019-06-26T06:52:46.713Z,26.36
2019-06-26T06:55:17.281Z,26.31
2019-06-26T06:57:47.891Z,26.59
2019-06-26T07:00:19.163Z,26.60
2019-06-26T07:02:49.761Z,26.70
2019-06-26T07:05:20.318Z,26.65
2019-06-26T07:07:50.914Z,26.64
2019-06-26T07:10:21.474Z,26.67
2019-06-26T07:12:52.062Z,26.80
2019-06-26T07:15:24.336Z,26.43
2019-06-26T07:17:55.162Z,26.80
2019-06-26T07:20:25.855Z,26.93
2019-06-26T07:22:56.448Z,26.57
2019-06-26T07:25:27.030Z,26.67
2019-06-26T07:28:01.560Z,26.75
2019-06-26T07:30:30.011Z,26.82
2019-06-26T07:33:00.636Z,26.54
2019-06-26T07:35:31.211Z,26.54
2019-06-26T07:38:01.940Z,26.65
2019-06-26T07:40:32.535Z,27.02
2019-06-26T07:43:03.106Z,27.16
2019-06-26T07:45:33.775Z,27.24
2019-06-26T07:48:04.424Z,27.26
2019-06-26T07:50:35.020Z,27.10
2019-06-26T07:53:06.180Z,27.07
2019-06-26T07:55:40.390Z,27.25
2019-06-26T07:58:09.045Z,27.40
2019-06-26T08:00:39.948Z,27.26
2019-06-26T08:03:10.514Z,27.34
2019-06-26T08:05:43.156Z,27.31
2019-06-26T08:08:14.904Z,27.49
2019-06-26T08:10:45.769Z,27.44
2019-06-26T08:13:16.405Z,27.41
2019-06-26T08:15:46.989Z,27.42
2019-06-26T08:18:17.560Z,27.20
2019-06-26T08:21:00.752Z,27.44
2019-06-26T08:23:20.470Z,27.44
2019-06-26T08:25:51.077Z,27.75
2019-06-26T08:28:21.646Z,27.82
2019-06-26T08:30:52.295Z,27.77
2019-06-26T08:33:23.456Z,27.99
2019-06-26T08:35:54.051Z,28.11
2019-06-26T08:38:24.601Z,28.00
2019-06-26T08:40:55.193Z,28.23
2019-06-26T08:43:25.756Z,28.37
2019-06-26T08:54:04.842Z,28.58
2019-06-26T08:56:35.688Z,28.54
2019-06-26T08:59:06.446Z,28.73
2019-06-26T09:01:37.117Z,28.88
2019-06-26T09:04:08.932Z,28.85
2019-06-26T09:06:39.879Z,28.85
2019-06-26T09:09:11.299Z,28.91
2019-06-26T09:11:41.968Z,29.07
2019-06-26T09:14:12.657Z,29.03
2019-06-26T09:16:43.355Z,29.08
2019-06-26T09:19:14.066Z,28.73
2019-06-26T09:21:44.761Z,29.22
2019-06-26T09:24:15.531Z,29.38
2019-06-26T09:26:46.315Z,29.04
2019-06-26T09:29:16.953Z,29.27
2019-06-26T09:31:47.662Z,29.50
2019-06-26T09:34:18.339Z,29.80
2019-06-26T09:36:48.995Z,29.85
2019-06-26T09:39:19.710Z,29.62
2019-06-26T09:41:50.441Z,29.62
2019-06-26T09:44:21.067Z,29.75
2019-06-26T09:46:51.779Z,29.82
2019-06-26T09:49:22.728Z,29.89
2019-06-26T09:51:53.436Z,29.99
2019-06-26T09:54:24.113Z,30.09
2019-06-26T09:56:54.744Z,30.07
2019-06-26T09:59:25.592Z,29.79
2019-06-26T10:01:56.309Z,30.27
2019-06-26T10:04:26.918Z,30.27
2019-06-26T10:06:57.808Z,30.46
2019-06-26T10:09:28.928Z,30.62
2019-06-26T10:11:59.638Z,30.11
2019-06-26T10:14:46.661Z,30.00
2019-06-26T10:17:02.923Z,30.45
2019-06-26T10:19:33.655Z,30.29
2019-06-26T10:22:04.285Z,30.31
2019-06-26T10:24:35.565Z,30.85
2019-06-26T10:27:06.263Z,30.70
2019-06-26T10:29:36.932Z,30.49
2019-06-26T10:32:07.566Z,31.08
2019-06-26T10:34:38.341Z,30.73
2019-06-26T10:37:09.262Z,30.04
2019-06-26T10:45:49.580Z,30.57
2019-06-26T10:47:59.355Z,30.89
2019-06-26T10:50:51.044Z,30.66
2019-06-26T10:58:00.398Z,30.89
2019-06-26T11:01:10.629Z,31.07
2019-06-26T11:03:58.495Z,30.45
2019-06-26T11:06:37.079Z,30.52
2019-06-26T11:09:25.586Z,30.69
2019-06-26T11:15:39.600Z,31.05
2019-06-26T11:18:38.963Z,31.16
2019-06-26T11:21:32.495Z,31.34
2019-06-26T11:24:03.146Z,31.50
2019-06-26T11:26:43.122Z,31.02
2019-06-26T11:29:13.967Z,30.79
2019-06-26T11:31:45.045Z,31.32
2019-06-26T11:34:15.902Z,31.70
2019-06-26T11:37:04.330Z,32.16
2019-06-26T11:39:33.006Z,31.54
2019-06-26T11:42:03.831Z,31.35
2019-06-26T11:44:53.431Z,31.18
2019-06-26T11:47:23.335Z,31.35
2019-06-26T11:50:38.703Z,31.39
2019-06-26T11:54:17.164Z,31.40
2019-06-26T11:56:51.218Z,31.75
2019-06-26T11:59:37.854Z,31.79
2019-06-26T12:06:48.399Z,32.15
2019-06-26T12:09:38.790Z,32.32
2019-06-26T12:12:09.635Z,32.07
2019-06-26T12:19:34.986Z,31.70
2019-06-26T12:32:41.503Z,32.67
2019-06-26T12:35:56.708Z,32.84
2019-06-26T12:59:13.862Z,32.19
2019-06-26T13:02:00.568Z,32.13
2019-06-26T13:06:46.737Z,32.64
2019-06-26T13:17:34.599Z,32.49
2019-06-26T13:20:09.701Z,32.13
2019-06-26T13:22:40.955Z,32.58
2019-06-26T13:25:15.903Z,32.52
2019-06-26T13:27:51.144Z,32.14
2019-06-26T13:30:41.429Z,32.11
2019-06-26T13:33:17.180Z,32.10
2019-06-26T13:35:52.039Z,32.01
2019-06-26T13:38:26.982Z,31.86
2019-06-26T13:40:56.711Z,32.30
2019-06-26T13:43:31.705Z,32.20
2019-06-26T13:46:09.038Z,32.20
2019-06-26T13:48:40.810Z,32.25
2019-06-26T13:51:21.395Z,33.16
2019-06-26T13:54:08.004Z,33.03
2019-06-26T13:56:52.507Z,32.69
2019-06-26T13:59:33.731Z,32.22
2019-06-26T14:02:05.947Z,32.29
2019-06-26T14:04:42.287Z,32.56
2019-06-26T14:07:27.165Z,33.24
2019-06-26T14:10:04.641Z,32.57
2019-06-26T14:12:49.029Z,32.45
2019-06-26T14:15:53.569Z,32.32
2019-06-26T14:18:30.299Z,32.23
2019-06-26T14:21:03.587Z,32.42
2019-06-26T14:23:37.776Z,32.54
2019-06-26T14:26:14.209Z,32.45
2019-06-26T14:28:54.116Z,32.45
2019-06-26T14:31:32.205Z,32.83
2019-06-26T14:34:03.542Z,32.52
2019-06-26T14:36:37.369Z,33.04
2019-06-26T14:39:10.232Z,32.79
2019-06-26T14:41:41.333Z,32.88
2019-06-26T14:44:12.298Z,33.27
2019-06-26T14:46:43.063Z,33.53
2019-06-26T14:49:13.924Z,33.38
2019-06-26T14:51:47.679Z,33.76
2019-06-26T14:54:17.483Z,33.48
2019-06-26T14:56:48.248Z,32.83
2019-06-26T14:59:18.989Z,32.53
2019-06-26T15:01:49.950Z,33.49
2019-06-26T15:04:20.801Z,34.00
2019-06-26T15:06:52.264Z,33.39
2019-06-26T15:09:37.933Z,33.32
2019-06-26T15:12:12.087Z,33.95
2019-06-26T15:14:43.720Z,33.18
2019-06-26T15:17:15.402Z,33.18
2019-06-26T15:19:52.602Z,33.31
2019-06-26T15:22:23.724Z,33.21
2019-06-26T15:24:54.812Z,32.79
2019-06-26T15:27:26.153Z,33.65
2019-06-26T15:30:10.427Z,33.49
2019-06-26T15:32:44.064Z,33.14
2019-06-26T15:35:49.057Z,32.89
2019-06-26T15:38:20.105Z,33.01
2019-06-26T15:40:50.745Z,33.36
2019-06-26T15:43:21.337Z,33.11
2019-06-26T15:46:01.290Z,33.75
2019-06-26T15:48:32.561Z,34.00
2019-06-26T15:51:03.902Z,34.42
2019-06-26T15:53:34.623Z,34.27
2019-06-26T15:56:05.505Z,33.78
2019-06-26T15:58:36.160Z,33.27
2019-06-26T16:01:09.971Z,33.27
2019-06-26T16:03:40.630Z,33.42
2019-06-26T16:06:11.291Z,32.65
2019-06-26T16:08:42.001Z,32.71
2019-06-26T16:11:12.604Z,33.16
2019-06-26T16:13:43.919Z,33.28
2019-06-26T16:16:14.779Z,33.21
2019-06-26T16:18:50.944Z,33.41
2019-06-26T16:21:21.645Z,32.89
2019-06-26T16:23:52.266Z,32.43
2019-06-26T16:26:22.904Z,32.48
2019-06-26T16:28:53.587Z,33.06
2019-06-26T16:31:24.319Z,32.78
2019-06-26T16:33:54.912Z,32.94
2019-06-26T16:36:25.492Z,32.06
2019-06-26T16:38:57.077Z,32.41
2019-06-26T16:41:27.855Z,32.45
2019-06-26T16:44:20.116Z,32.76
2019-06-26T16:46:51.244Z,32.78
2019-06-26T16:49:21.824Z,32.56
2019-06-26T16:51:52.474Z,32.70
2019-06-26T16:54:23.098Z,32.10
2019-06-26T16:56:54.274Z,32.33
2019-06-26T16:59:24.857Z,32.45
2019-06-26T17:01:55.453Z,32.33
2019-06-26T17:04:26.097Z,32.18
2019-06-26T17:06:56.687Z,32.07
2019-06-26T17:09:27.937Z,32.31
2019-06-26T17:11:58.900Z,32.27
2019-06-26T17:14:29.444Z,32.33
2019-06-26T17:17:00.369Z,32.07
2019-06-26T17:19:31.504Z,31.32
2019-06-26T17:22:02.491Z,31.94
2019-06-26T17:24:33.358Z,31.99
2019-06-26T17:27:04.497Z,31.67
2019-06-26T17:29:35.374Z,31.58
2019-06-26T17:32:11.714Z,31.70
2019-06-26T17:34:55.907Z,31.51
2019-06-26T17:37:32.312Z,30.91
2019-06-26T17:40:06.469Z,30.86
2019-06-26T17:42:40.569Z,30.49
2019-06-26T17:45:11.606Z,31.00
2019-06-26T17:47:45.641Z,30.70
2019-06-26T17:50:22.764Z,30.15
2019-06-26T17:52:57.528Z,30.63
2019-06-26T17:55:29.893Z,30.71
2019-06-26T17:58:02.771Z,30.33
2019-06-26T18:00:38.208Z,30.41
2019-06-26T18:03:10.494Z,30.21
2019-06-26T18:05:41.927Z,30.02
2019-06-26T18:08:13.908Z,29.57
2019-06-26T18:10:46.760Z,29.45
2019-06-26T18:13:18.617Z,29.70
2019-06-26T18:15:50.275Z,29.98
2019-06-26T18:18:21.011Z,29.68
2019-06-26T18:20:51.938Z,29.56
2019-06-26T18:23:36.636Z,29.52
2019-06-26T18:26:11.751Z,29.31
2019-06-26T18:33:09.585Z,28.71
2019-06-26T18:36:09.947Z,28.62
2019-06-26T18:38:41.167Z,28.73
2019-06-26T18:41:11.902Z,28.91
2019-06-26T18:43:42.640Z,29.31
2019-06-26T18:46:16.344Z,28.60
2019-06-26T18:48:57.675Z,29.28
2019-06-26T18:51:28.513Z,29.09
2019-06-26T18:54:09.501Z,29.34
2019-06-26T18:56:45.141Z,28.90
2019-06-26T18:59:33.445Z,28.55
2019-06-26T19:02:04.088Z,28.30
2019-06-26T19:04:34.720Z,28.31
2019-06-26T19:07:05.652Z,28.43
2019-06-26T19:09:36.899Z,28.20
2019-06-26T19:12:07.667Z,28.40
2019-06-26T19:14:38.727Z,29.18
2019-06-26T19:17:09.411Z,28.28
2019-06-26T19:19:40.148Z,28.39
2019-06-26T19:22:11.228Z,27.51
2019-06-26T19:24:42.029Z,27.30
2019-06-26T19:27:12.703Z,27.44
2019-06-26T19:29:43.538Z,27.75
2019-06-26T19:32:14.200Z,27.34
2019-06-26T19:34:44.822Z,27.49
2019-06-26T19:37:16.368Z,27.34
2019-06-26T19:39:46.972Z,27.96
2019-06-26T19:42:17.634Z,28.07
2019-06-26T19:44:48.354Z,28.02
2019-06-26T19:47:19.061Z,27.06
2019-06-26T19:49:52.698Z,27.22
2019-06-26T19:52:23.513Z,27.66
2019-06-26T19:54:54.607Z,27.45
2019-06-26T19:57:25.293Z,27.45
2019-06-26T19:59:56.006Z,27.05
2019-06-26T20:02:26.677Z,27.22
2019-06-26T20:04:57.406Z,26.82
2019-06-26T20:07:28.492Z,26.71
2019-06-26T20:10:01.712Z,26.97
2019-06-26T20:12:55.821Z,26.86
2019-06-26T20:15:45.993Z,26.52
2019-06-26T20:18:17.322Z,26.71
2019-06-26T20:21:13.217Z,26.65
2019-06-26T20:24:42.566Z,26.73
2019-06-26T20:26:38.716Z,26.02
2019-06-26T20:29:09.563Z,26.17
2019-06-26T20:31:41.299Z,25.99
2019-06-26T20:34:21.110Z,26.64
2019-06-26T20:36:52.208Z,26.56
2019-06-26T20:39:23.587Z,25.71
2019-06-26T20:41:54.404Z,25.57
2019-06-26T20:44:25.842Z,25.67
2019-06-26T20:46:56.818Z,26.22
2019-06-26T20:49:27.420Z,25.67
2019-06-26T20:51:58.040Z,25.94
2019-06-26T20:54:28.584Z,25.66
2019-06-26T20:56:59.217Z,25.12
2019-06-26T20:59:29.843Z,25.01
2019-06-26T21:02:00.782Z,25.09
2019-06-26T21:04:31.690Z,25.53
2019-06-26T21:07:02.297Z,24.75
2019-06-26T21:09:32.901Z,25.18
2019-06-26T21:12:03.477Z,24.86
2019-06-26T21:14:34.094Z,24.33
2019-06-26T21:17:04.701Z,24.63
2019-06-26T21:19:35.317Z,24.34
2019-06-26T21:22:08.901Z,24.53
2019-06-26T21:24:38.242Z,24.27
2019-06-26T21:27:08.824Z,24.56
2019-06-26T21:29:39.805Z,25.02
2019-06-26T21:32:10.368Z,24.42
2019-06-26T21:34:40.951Z,23.98
2019-06-26T21:37:11.530Z,24.52
2019-06-26T21:39:42.120Z,24.17
2019-06-26T21:42:12.693Z,24.52
2019-06-26T21:44:43.273Z,23.90
2019-06-26T21:47:13.843Z,23.72
2019-06-26T21:49:44.721Z,24.50
2019-06-26T21:52:15.304Z,24.21
2019-06-26T21:54:45.896Z,23.75
2019-06-26T21:57:16.496Z,23.69
2019-06-26T21:59:47.103Z,23.90
2019-06-26T22:02:17.687Z,23.81
2019-06-26T22:04:48.284Z,23.86
2019-06-26T22:07:18.986Z,23.78
2019-06-26T22:09:49.573Z,23.79
2019-06-26T22:12:20.332Z,24.04
2019-06-26T22:14:50.933Z,23.72
2019-06-26T22:17:21.512Z,23.56
2019-06-26T22:19:52.113Z,23.72
2019-06-26T22:22:22.662Z,23.45
2019-06-26T22:24:53.306Z,23.66
2019-06-26T22:27:23.950Z,23.79
2019-06-26T22:29:54.853Z,23.75
2019-06-26T22:32:25.427Z,22.96
2019-06-26T22:34:56.044Z,23.26
2019-06-26T22:37:26.609Z,22.93
2019-06-26T22:39:57.210Z,23.03
2019-06-26T22:42:27.787Z,22.76
2019-06-26T22:44:58.426Z,22.53
2019-06-26T22:47:29.351Z,22.96
2019-06-26T22:50:00.059Z,22.44
2019-06-26T22:52:31.161Z,23.35
2019-06-26T22:55:01.776Z,23.24
2019-06-26T22:57:32.368Z,22.89
2019-06-26T23:00:02.991Z,22.86
2019-06-26T23:02:33.624Z,22.82
2019-06-26T23:05:04.374Z,22.11
2019-06-26T23:07:34.978Z,22.20
2019-06-26T23:10:05.944Z,21.85
2019-06-26T23:12:36.693Z,22.15
2019-06-26T23:15:07.709Z,22.28
2019-06-26T23:17:38.353Z,21.86
2019-06-26T23:20:09.266Z,21.77
2019-06-26T23:22:39.892Z,21.85
2019-06-26T23:25:10.581Z,21.70
2019-06-26T23:27:41.263Z,21.59
2019-06-26T23:30:19.044Z,21.96
2019-06-26T23:32:49.655Z,22.15
2019-06-26T23:35:20.231Z,21.39
2019-06-26T23:37:50.891Z,21.62
2019-06-26T23:40:21.480Z,20.87
2019-06-26T23:42:52.151Z,21.10
2019-06-26T23:45:22.721Z,21.27
2019-06-26T23:47:53.316Z,21.17
2019-06-26T23:50:23.907Z,21.04
2019-06-26T23:52:54.538Z,20.76
2019-06-26T23:55:25.121Z,20.82
2019-06-26T23:57:59.387Z,21.04
